createdAt,value
2023-06-19T00:00:57.268Z,199.20
2023-06-19T00:01:57.285Z,199.40
2023-06-19T00:02:57.335Z,196.81
2023-06-19T00:03:57.427Z,200.00
2023-06-19T00:04:57.345Z,196.73
2023-06-19T00:05:57.399Z,194.67
2023-06-19T00:06:57.417Z,200.18
2023-06-19T00:07:57.447Z,193.83
2023-06-19T00:08:57.437Z,194.12
2023-06-19T00:09:57.470Z,194.80
2023-06-19T00:10:57.499Z,195.84
2023-06-19T00:11:57.539Z,198.95
2023-06-19T00:12:57.533Z,196.19
2023-06-19T00:13:57.566Z,192.28
2023-06-19T00:14:57.603Z,190.32
2023-06-19T00:15:57.622Z,193.10
2023-06-19T00:16:57.578Z,194.05
2023-06-19T00:17:57.575Z,192.65
2023-06-19T00:18:57.547Z,197.72
2023-06-19T00:19:57.528Z,196.23
2023-06-19T00:20:57.566Z,197.69
2023-06-19T00:21:57.541Z,199.99
2023-06-19T00:22:57.536Z,193.93
2023-06-19T00:23:57.608Z,199.58
2023-06-19T00:24:57.578Z,200.00
2023-06-19T00:25:57.581Z,199.02
2023-06-19T00:26:57.573Z,199.14
2023-06-19T00:27:57.579Z,196.45
2023-06-19T00:28:57.554Z,194.45
2023-06-19T00:29:57.549Z,188.43
2023-06-19T00:30:57.581Z,195.74
2023-06-19T00:31:57.599Z,196.69
2023-06-19T00:32:57.627Z,198.07
2023-06-19T00:33:57.632Z,196.88
2023-06-19T00:34:57.697Z,198.38
2023-06-19T00:35:57.662Z,198.71
2023-06-19T00:36:57.688Z,198.94
2023-06-19T00:37:57.726Z,199.71
2023-06-19T00:38:57.729Z,198.18
2023-06-19T00:39:57.726Z,198.79
2023-06-19T00:40:57.719Z,199.71
2023-06-19T00:41:57.700Z,196.91
2023-06-19T00:42:57.674Z,196.99
2023-06-19T00:43:57.640Z,198.81
2023-06-19T00:44:57.595Z,199.72
2023-06-19T00:45:57.603Z,199.41
2023-06-19T00:46:58.968Z,197.41
2023-06-19T00:47:57.528Z,198.75
2023-06-19T00:48:57.420Z,195.32
2023-06-19T00:49:57.379Z,195.37
2023-06-19T00:50:57.353Z,196.69
2023-06-19T00:51:57.306Z,196.51
2023-06-19T00:52:57.278Z,195.97
2023-06-19T00:53:57.272Z,194.89
2023-06-19T00:54:57.160Z,197.52
2023-06-19T00:55:57.113Z,195.74
2023-06-19T00:56:57.088Z,197.80
2023-06-19T00:57:57.022Z,198.78
2023-06-19T00:58:56.984Z,197.25
2023-06-19T00:59:56.935Z,195.59
2023-06-19T01:01:08.033Z,196.97
2023-06-19T01:01:57.955Z,197.12
2023-06-19T01:02:57.003Z,197.32
2023-06-19T01:03:56.969Z,198.09
2023-06-19T01:04:56.763Z,198.19
2023-06-19T01:05:56.711Z,198.54
2023-06-19T01:06:56.673Z,197.72
2023-06-19T01:07:56.615Z,197.75
2023-06-19T01:08:56.620Z,195.61
2023-06-19T01:09:56.602Z,194.64
2023-06-19T01:10:56.540Z,195.66
2023-06-19T01:11:56.528Z,194.30
2023-06-19T01:12:56.516Z,197.03
2023-06-19T01:13:56.497Z,196.94
2023-06-19T01:14:56.500Z,195.68
2023-06-19T01:15:56.546Z,196.00
2023-06-19T01:16:56.573Z,197.55
2023-06-19T01:17:56.549Z,197.09
2023-06-19T01:18:56.487Z,197.89
2023-06-19T01:19:56.509Z,198.11
2023-06-19T01:20:56.533Z,197.59
2023-06-19T01:21:56.517Z,195.84
2023-06-19T01:22:56.462Z,195.87
2023-06-19T01:23:56.524Z,197.43
2023-06-19T01:24:56.504Z,196.98
2023-06-19T01:25:56.422Z,199.14
2023-06-19T01:26:56.459Z,200.00
2023-06-19T01:27:56.437Z,199.99
2023-06-19T01:28:56.439Z,196.53
2023-06-19T01:29:56.425Z,197.21
2023-06-19T01:30:56.429Z,197.21
2023-06-19T01:31:56.450Z,199.65
2023-06-19T01:32:56.435Z,198.96
2023-06-19T01:33:56.319Z,196.31
2023-06-19T01:34:56.314Z,197.36
2023-06-19T01:35:56.296Z,198.71
2023-06-19T01:36:56.277Z,198.26
2023-06-19T01:37:56.264Z,198.67
2023-06-19T01:38:56.206Z,200.00
2023-06-19T01:39:56.197Z,197.27
2023-06-19T01:40:56.136Z,198.46
2023-06-19T01:41:56.153Z,197.70
2023-06-19T01:42:56.136Z,197.71
2023-06-19T01:43:56.079Z,198.85
2023-06-19T01:44:56.033Z,196.58
2023-06-19T01:45:56.056Z,198.95
2023-06-19T01:46:56.050Z,198.37
2023-06-19T01:47:56.014Z,197.15
2023-06-19T01:48:55.967Z,197.05
2023-06-19T01:49:55.975Z,194.46
2023-06-19T01:50:55.970Z,195.16
2023-06-19T01:51:55.956Z,192.96
2023-06-19T01:52:55.955Z,190.45
2023-06-19T01:53:55.969Z,188.75
2023-06-19T01:54:55.926Z,191.81
2023-06-19T01:55:55.954Z,191.25
2023-06-19T01:56:55.908Z,190.04
2023-06-19T01:57:55.951Z,190.54
2023-06-19T01:58:55.981Z,192.25
2023-06-19T01:59:55.962Z,191.58
2023-06-19T02:00:55.958Z,189.05
2023-06-19T02:01:55.972Z,190.19
2023-06-19T02:02:56.071Z,188.82
2023-06-19T02:03:56.033Z,189.94
2023-06-19T02:04:56.002Z,192.51
2023-06-19T02:05:56.058Z,194.21
2023-06-19T02:06:56.063Z,193.35
2023-06-19T02:07:56.029Z,196.15
2023-06-19T02:08:56.066Z,196.61
2023-06-19T02:09:56.018Z,194.47
2023-06-19T02:10:56.044Z,193.25
2023-06-19T02:11:56.056Z,192.66
2023-06-19T02:12:56.068Z,194.93
2023-06-19T02:13:56.070Z,191.89
2023-06-19T02:14:56.107Z,191.42
2023-06-19T02:15:56.166Z,191.50
2023-06-19T02:16:56.165Z,191.13
2023-06-19T02:17:57.020Z,190.21
2023-06-19T02:18:56.165Z,192.39
2023-06-19T02:19:56.179Z,195.70
2023-06-19T02:20:56.174Z,196.55
2023-06-19T02:21:56.184Z,196.18
2023-06-19T02:22:56.147Z,197.85
2023-06-19T02:23:56.163Z,198.94
2023-06-19T02:24:56.145Z,197.90
2023-06-19T02:25:56.145Z,195.79
2023-06-19T02:26:56.149Z,194.23
2023-06-19T02:27:56.163Z,194.47
2023-06-19T02:28:56.218Z,193.05
2023-06-19T02:29:56.185Z,193.08
2023-06-19T02:30:56.191Z,197.36
2023-06-19T02:31:56.245Z,196.81
2023-06-19T02:32:56.222Z,197.53
2023-06-19T02:33:56.240Z,199.34
2023-06-19T02:34:56.283Z,199.04
2023-06-19T02:35:56.261Z,196.39
2023-06-19T02:36:56.329Z,195.98
2023-06-19T02:37:56.270Z,195.78
2023-06-19T02:38:56.315Z,195.33
2023-06-19T02:39:56.323Z,196.11
2023-06-19T02:40:56.367Z,197.14
2023-06-19T02:41:56.413Z,198.90
2023-06-19T02:42:56.448Z,199.69
2023-06-19T02:43:56.496Z,198.53
2023-06-19T02:44:56.588Z,196.32
2023-06-19T02:45:56.570Z,197.45
2023-06-19T02:46:56.541Z,197.01
2023-06-19T02:47:56.594Z,196.48
2023-06-19T02:48:56.566Z,197.79
2023-06-19T02:49:56.643Z,195.33
2023-06-19T02:50:56.652Z,194.25
2023-06-19T02:51:56.696Z,195.47
2023-06-19T02:52:56.682Z,194.44
2023-06-19T02:53:56.722Z,192.04
2023-06-19T02:54:56.749Z,191.90
2023-06-19T02:55:58.397Z,189.42
2023-06-19T02:56:56.821Z,188.46
2023-06-19T02:57:56.772Z,189.41
2023-06-19T02:58:56.823Z,190.93
2023-06-19T02:59:56.785Z,193.21
2023-06-19T03:00:56.807Z,190.90
2023-06-19T03:01:56.838Z,194.39
2023-06-19T03:02:56.893Z,194.22
2023-06-19T03:03:56.794Z,194.76
2023-06-19T03:04:56.861Z,196.51
2023-06-19T03:05:56.862Z,198.68
2023-06-19T03:06:56.946Z,198.07
2023-06-19T03:07:56.897Z,197.50
2023-06-19T03:08:56.811Z,196.14
2023-06-19T03:09:56.863Z,195.98
2023-06-19T03:10:56.875Z,197.91
2023-06-19T03:11:56.930Z,198.13
2023-06-19T03:12:56.941Z,199.26
2023-06-19T03:13:56.956Z,200.00
2023-06-19T03:14:56.959Z,196.87
2023-06-19T03:15:56.997Z,194.12
2023-06-19T03:16:57.116Z,194.78
2023-06-19T03:17:57.138Z,195.98
2023-06-19T03:18:57.099Z,195.52
2023-06-19T03:19:57.132Z,192.92
2023-06-19T03:20:57.154Z,193.58
2023-06-19T03:21:57.167Z,196.85
2023-06-19T03:22:57.187Z,198.45
2023-06-19T03:23:57.217Z,198.76
2023-06-19T03:24:57.154Z,198.72
2023-06-19T03:25:57.180Z,199.00
2023-06-19T03:26:57.219Z,196.62
2023-06-19T03:27:57.171Z,195.11
2023-06-19T03:28:57.203Z,194.89
2023-06-19T03:29:57.213Z,196.31
2023-06-19T03:30:57.214Z,195.84
2023-06-19T03:31:57.207Z,196.60
2023-06-19T03:32:57.238Z,200.00
2023-06-19T03:33:57.260Z,197.59
2023-06-19T03:34:57.234Z,195.87
2023-06-19T03:35:57.262Z,196.38
2023-06-19T03:36:57.299Z,195.34
2023-06-19T03:37:57.256Z,196.82
2023-06-19T03:38:57.220Z,197.21
2023-06-19T03:39:57.233Z,198.46
2023-06-19T03:40:57.302Z,199.22
2023-06-19T03:41:57.269Z,198.39
2023-06-19T03:42:57.295Z,197.35
2023-06-19T03:43:57.243Z,198.19
2023-06-19T03:44:57.223Z,198.56
2023-06-19T03:45:57.242Z,198.71
2023-06-19T03:46:57.194Z,198.91
2023-06-19T03:47:57.234Z,198.67
2023-06-19T03:48:57.202Z,200.00
2023-06-19T03:50:02.058Z,197.37
2023-06-19T03:50:58.159Z,197.40
2023-06-19T03:51:57.116Z,196.93
2023-06-19T03:52:57.116Z,196.81
2023-06-19T03:53:57.031Z,197.56
2023-06-19T03:54:56.990Z,197.09
2023-06-19T03:55:56.979Z,195.23
2023-06-19T03:56:56.959Z,195.45
2023-06-19T03:57:57.915Z,196.91
2023-06-19T04:00:12.477Z,50.00
2023-06-19T04:01:12.460Z,50.00
2023-06-19T04:02:12.449Z,50.00
2023-06-19T04:03:12.540Z,50.00
2023-06-19T04:04:12.447Z,50.00
2023-06-19T04:05:12.396Z,50.63
2023-06-19T04:06:12.400Z,52.15
2023-06-19T04:07:12.360Z,51.49
2023-06-19T04:08:12.329Z,52.40
2023-06-19T04:09:12.358Z,51.44
2023-06-19T04:10:12.335Z,52.03
2023-06-19T04:11:12.313Z,53.12
2023-06-19T04:12:14.207Z,51.97
2023-06-19T04:13:12.266Z,53.49
2023-06-19T04:14:12.276Z,52.09
2023-06-19T04:15:12.256Z,54.83
2023-06-19T04:16:12.293Z,55.43
2023-06-19T04:17:12.235Z,54.71
2023-06-19T04:18:12.234Z,57.19
2023-06-19T04:19:12.166Z,58.03
2023-06-19T04:20:12.761Z,56.30
2023-06-19T04:21:12.131Z,56.93
2023-06-19T04:22:12.138Z,55.85
2023-06-19T04:23:12.137Z,58.38
2023-06-19T04:24:12.196Z,55.34
2023-06-19T04:25:12.277Z,59.20
2023-06-19T04:26:12.216Z,56.12
2023-06-19T04:27:12.234Z,57.89
2023-06-19T04:28:12.281Z,55.74
2023-06-19T04:29:12.293Z,57.67
2023-06-19T04:30:12.361Z,59.03
2023-06-19T04:31:12.398Z,59.03
2023-06-19T04:32:12.544Z,60.83
2023-06-19T04:33:12.511Z,61.33
2023-06-19T04:34:12.487Z,61.21
2023-06-19T04:35:12.580Z,57.46
2023-06-19T04:36:12.544Z,60.04
2023-06-19T04:37:12.615Z,58.56
2023-06-19T04:38:12.637Z,59.52
2023-06-19T04:39:12.650Z,62.51
2023-06-19T04:40:12.704Z,61.60
2023-06-19T04:41:13.683Z,64.06
2023-06-19T04:42:12.784Z,64.17
2023-06-19T04:43:12.830Z,65.18
2023-06-19T04:44:12.851Z,65.08
2023-06-19T04:45:12.893Z,64.97
2023-06-19T04:46:12.932Z,64.71
2023-06-19T04:47:12.948Z,62.40
2023-06-19T04:48:13.035Z,63.30
2023-06-19T04:49:13.002Z,62.61
2023-06-19T04:50:13.058Z,62.66
2023-06-19T04:51:13.099Z,60.79
2023-06-19T04:52:13.148Z,61.02
2023-06-19T04:53:13.158Z,55.21
2023-06-19T04:54:13.211Z,53.38
2023-06-19T04:55:13.226Z,50.07
2023-06-19T04:56:13.286Z,50.00
2023-06-19T04:57:13.307Z,52.23
2023-06-19T04:58:13.301Z,51.73
2023-06-19T04:59:13.324Z,50.09
2023-06-19T05:00:13.370Z,52.50
2023-06-19T05:01:13.454Z,51.02
2023-06-19T05:02:13.462Z,52.64
2023-06-19T05:03:13.477Z,51.29
2023-06-19T05:04:13.553Z,50.99
2023-06-19T05:05:13.566Z,51.82
2023-06-19T05:06:13.588Z,50.20
2023-06-19T05:07:13.593Z,50.98
2023-06-19T05:08:13.592Z,51.35
2023-06-19T05:09:13.677Z,51.77
2023-06-19T05:10:13.701Z,52.04
2023-06-19T05:11:13.737Z,51.62
2023-06-19T05:12:13.768Z,52.24
2023-06-19T05:13:13.870Z,52.41
2023-06-19T05:14:13.834Z,51.62
2023-06-19T05:15:13.896Z,50.74
2023-06-19T05:16:13.991Z,51.86
2023-06-19T05:17:14.002Z,51.34
2023-06-19T05:18:14.032Z,50.12
2023-06-19T05:19:14.067Z,51.77
2023-06-19T05:20:14.078Z,52.71
2023-06-19T05:21:14.115Z,50.00
2023-06-19T05:22:14.249Z,54.28
2023-06-19T05:23:14.195Z,52.91
2023-06-19T05:24:14.281Z,52.72
2023-06-19T05:25:14.318Z,54.81
2023-06-19T05:26:14.358Z,55.14
2023-06-19T05:27:14.401Z,55.12
2023-06-19T05:28:14.428Z,55.67
2023-06-19T05:29:14.504Z,57.69
2023-06-19T05:30:14.526Z,54.80
2023-06-19T05:31:14.600Z,55.86
2023-06-19T05:32:14.653Z,55.83
2023-06-19T05:33:14.693Z,59.41
2023-06-19T05:34:14.707Z,62.03
2023-06-19T05:35:16.401Z,67.70
2023-06-19T05:36:14.676Z,67.70
2023-06-19T05:37:14.754Z,69.53
2023-06-19T05:38:14.780Z,71.20
2023-06-19T05:39:14.804Z,72.61
2023-06-19T05:40:14.860Z,76.40
2023-06-19T05:41:14.984Z,77.18
2023-06-19T05:42:14.997Z,78.88
2023-06-19T05:43:15.054Z,73.80
2023-06-19T05:44:15.104Z,68.17
2023-06-19T05:45:15.120Z,70.96
2023-06-19T05:46:15.253Z,74.58
2023-06-19T05:47:15.228Z,77.54
2023-06-19T05:48:15.283Z,80.92
2023-06-19T05:49:15.351Z,84.86
2023-06-19T05:50:15.368Z,84.87
2023-06-19T05:51:15.452Z,94.70
2023-06-19T05:52:15.478Z,96.82
2023-06-19T05:53:15.906Z,107.89
2023-06-19T05:54:15.539Z,111.79
2023-06-19T05:55:15.590Z,117.84
2023-06-19T05:56:15.625Z,110.28
2023-06-19T05:57:15.716Z,110.88
2023-06-19T05:58:15.720Z,114.02
2023-06-19T05:59:15.801Z,114.02
2023-06-19T06:00:15.772Z,117.43
2023-06-19T06:01:15.920Z,124.04
2023-06-19T06:02:15.886Z,127.07
2023-06-19T06:03:16.031Z,134.99
2023-06-19T06:04:16.059Z,138.71
2023-06-19T06:05:16.018Z,142.42
2023-06-19T06:06:16.061Z,148.44
2023-06-19T06:07:16.122Z,150.88
2023-06-19T06:08:16.159Z,154.02
2023-06-19T06:09:16.184Z,156.39
2023-06-19T06:10:16.204Z,157.10
2023-06-19T06:11:16.269Z,161.03
2023-06-19T06:12:16.314Z,164.52
2023-06-19T06:13:16.375Z,166.17
2023-06-19T06:14:16.387Z,170.19
2023-06-19T06:15:16.512Z,172.72
2023-06-19T06:16:16.583Z,173.06
2023-06-19T06:17:16.549Z,174.51
2023-06-19T06:18:16.565Z,170.17
2023-06-19T06:19:16.602Z,171.46
2023-06-19T06:20:16.657Z,171.51
2023-06-19T06:21:16.716Z,174.19
2023-06-19T06:22:16.720Z,178.37
2023-06-19T06:23:16.764Z,176.47
2023-06-19T06:24:16.856Z,176.62
2023-06-19T06:25:16.822Z,179.28
2023-06-19T06:26:16.852Z,181.20
2023-06-19T06:27:16.862Z,184.74
2023-06-19T06:28:16.896Z,186.33
2023-06-19T06:29:16.943Z,186.90
2023-06-19T06:30:19.209Z,189.24
2023-06-19T06:31:16.948Z,193.00
2023-06-19T06:32:16.935Z,195.89
2023-06-19T06:33:16.895Z,193.70
2023-06-19T06:34:16.867Z,195.46
2023-06-19T06:35:16.863Z,195.20
2023-06-19T06:36:25.683Z,200.00
2023-06-19T06:37:17.856Z,200.23
2023-06-19T06:38:16.800Z,200.54
2023-06-19T06:39:16.792Z,200.59
2023-06-19T06:40:16.757Z,201.36
2023-06-19T06:41:16.745Z,203.16
2023-06-19T06:42:16.713Z,199.78
2023-06-19T06:43:16.726Z,199.33
2023-06-19T06:44:16.714Z,198.43
2023-06-19T06:45:16.686Z,198.72
2023-06-19T06:46:16.796Z,200.00
2023-06-19T06:47:16.670Z,200.00
2023-06-19T06:48:16.658Z,199.34
2023-06-19T06:49:16.729Z,199.23
2023-06-19T06:50:16.820Z,199.88
2023-06-19T06:51:16.877Z,198.58
2023-06-19T06:52:16.892Z,198.73
2023-06-19T06:53:16.903Z,197.39
2023-06-19T06:54:16.958Z,195.76
2023-06-19T06:55:17.011Z,193.19
2023-06-19T06:56:17.024Z,192.64
2023-06-19T06:57:18.621Z,195.25
2023-06-19T06:58:17.108Z,194.65
2023-06-19T06:59:17.160Z,196.01
2023-06-19T07:00:17.181Z,197.66
2023-06-19T07:01:17.298Z,198.11
2023-06-19T07:02:17.323Z,197.23
2023-06-19T07:03:17.456Z,196.80
2023-06-19T07:04:17.346Z,195.37
2023-06-19T07:05:17.477Z,197.05
2023-06-19T07:06:17.443Z,196.52
2023-06-19T07:07:17.481Z,196.58
2023-06-19T07:08:17.527Z,195.95
2023-06-19T07:09:17.584Z,192.91
2023-06-19T07:10:17.615Z,191.90
2023-06-19T07:11:17.607Z,189.46
2023-06-19T07:12:17.710Z,188.58
2023-06-19T07:13:17.720Z,189.07
2023-06-19T07:14:17.741Z,189.28
2023-06-19T07:15:17.805Z,186.24
2023-06-19T07:16:17.860Z,186.78
2023-06-19T07:17:19.716Z,183.16
2023-06-19T07:18:17.876Z,184.73
2023-06-19T07:19:17.868Z,183.98
2023-06-19T07:20:19.773Z,184.15
2023-06-19T07:21:17.790Z,182.61
2023-06-19T07:22:17.760Z,181.84
2023-06-19T07:23:17.742Z,181.10
2023-06-19T07:24:17.782Z,178.96
2023-06-19T07:25:17.725Z,179.57
2023-06-19T07:26:17.724Z,176.40
2023-06-19T07:27:17.736Z,176.45
2023-06-19T07:28:17.702Z,176.07
2023-06-19T07:29:17.660Z,174.43
2023-06-19T07:30:17.808Z,175.27
2023-06-19T07:31:17.788Z,174.24
2023-06-19T07:32:17.834Z,171.97
2023-06-19T07:33:17.884Z,173.12
2023-06-19T07:34:17.930Z,171.42
2023-06-19T07:35:17.968Z,172.97
2023-06-19T07:36:17.992Z,171.51
2023-06-19T07:37:18.053Z,171.56
2023-06-19T07:38:18.138Z,171.98
2023-06-19T07:39:18.164Z,172.80
2023-06-19T07:40:18.219Z,173.93
2023-06-19T07:41:18.253Z,179.28
2023-06-19T07:42:18.284Z,182.33
2023-06-19T07:43:18.310Z,180.86
2023-06-19T07:44:19.269Z,176.77
2023-06-19T07:45:18.369Z,175.32
2023-06-19T07:46:18.378Z,178.99
2023-06-19T07:47:18.353Z,185.49
2023-06-19T07:48:18.377Z,185.57
2023-06-19T07:49:18.445Z,186.25
2023-06-19T07:50:18.399Z,185.95
2023-06-19T07:51:18.399Z,189.86
2023-06-19T07:52:18.456Z,188.77
2023-06-19T07:53:18.457Z,187.28
2023-06-19T07:54:18.479Z,187.13
2023-06-19T07:55:18.501Z,188.05
2023-06-19T07:56:18.528Z,186.03
2023-06-19T07:57:18.543Z,190.23
2023-06-19T07:58:18.539Z,189.34
2023-06-19T07:59:18.546Z,190.97
2023-06-19T08:00:18.582Z,192.10
2023-06-19T08:01:18.563Z,193.07
2023-06-19T08:02:18.633Z,193.69
2023-06-19T08:03:18.672Z,192.56
2023-06-19T08:04:18.652Z,194.07
2023-06-19T08:05:18.718Z,192.44
2023-06-19T08:06:18.629Z,190.85
2023-06-19T08:07:18.659Z,189.50
2023-06-19T08:08:18.678Z,184.42
2023-06-19T08:09:18.678Z,178.45
2023-06-19T08:10:18.651Z,175.81
2023-06-19T08:11:18.680Z,172.64
2023-06-19T08:12:18.687Z,175.86
2023-06-19T08:13:18.701Z,176.51
2023-06-19T08:14:18.744Z,175.38
2023-06-19T08:15:18.720Z,170.31
2023-06-19T08:16:18.769Z,171.28
2023-06-19T08:17:19.106Z,164.30
2023-06-19T08:18:18.785Z,161.04
2023-06-19T08:19:18.841Z,162.37
2023-06-19T08:20:18.856Z,167.47
2023-06-19T08:21:18.877Z,169.76
2023-06-19T08:22:18.884Z,174.00
2023-06-19T08:23:18.884Z,175.80
2023-06-19T08:24:18.939Z,177.64
2023-06-19T08:25:19.018Z,178.27
2023-06-19T08:26:18.957Z,177.96
2023-06-19T08:27:18.981Z,179.18
2023-06-19T08:28:18.956Z,175.85
2023-06-19T08:29:19.029Z,167.57
2023-06-19T08:30:19.028Z,167.36
2023-06-19T08:31:19.031Z,162.16
2023-06-19T08:32:19.115Z,159.49
2023-06-19T08:33:19.095Z,153.05
2023-06-19T08:34:19.113Z,149.36
2023-06-19T08:35:19.137Z,137.86
2023-06-19T08:36:19.799Z,136.67
2023-06-19T08:37:19.151Z,142.27
2023-06-19T08:38:19.180Z,151.38
2023-06-19T08:39:19.203Z,154.86
2023-06-19T08:40:19.227Z,165.65
2023-06-19T08:41:19.292Z,170.15
2023-06-19T08:42:19.283Z,173.43
2023-06-19T08:43:19.247Z,178.00
2023-06-19T08:44:19.241Z,183.20
2023-06-19T08:45:19.244Z,188.20
2023-06-19T08:46:19.361Z,187.99
2023-06-19T08:47:19.282Z,193.93
2023-06-19T08:48:19.268Z,197.18
2023-06-19T08:49:19.251Z,199.65
2023-06-19T08:50:19.282Z,198.87
2023-06-19T08:51:19.271Z,199.47
2023-06-19T08:52:19.256Z,199.89
2023-06-19T08:53:19.276Z,200.52
2023-06-19T08:54:19.372Z,200.75
2023-06-19T08:55:19.261Z,200.00
2023-06-19T08:56:19.259Z,199.25
2023-06-19T08:57:19.437Z,199.38
2023-06-19T08:58:19.264Z,199.04
2023-06-19T08:59:19.263Z,197.89
2023-06-19T09:00:19.219Z,197.61
2023-06-19T09:01:19.233Z,199.37
2023-06-19T09:02:19.274Z,198.60
2023-06-19T09:03:19.267Z,200.00
2023-06-19T09:04:19.365Z,198.17
2023-06-19T09:05:19.198Z,198.72
2023-06-19T09:06:19.193Z,192.50
2023-06-19T09:07:19.287Z,188.92
2023-06-19T09:08:19.157Z,185.44
2023-06-19T09:09:19.138Z,183.80
2023-06-19T09:10:19.127Z,179.90
2023-06-19T09:11:19.125Z,177.32
2023-06-19T09:12:19.245Z,177.02
2023-06-19T09:13:19.078Z,176.42
2023-06-19T09:14:19.087Z,179.56
2023-06-19T09:15:19.096Z,178.87
2023-06-19T09:16:19.085Z,177.77
2023-06-19T09:17:19.091Z,177.24
2023-06-19T09:18:19.064Z,176.94
2023-06-19T09:19:19.013Z,173.74
2023-06-19T09:20:18.994Z,175.57
2023-06-19T09:21:19.060Z,173.86
2023-06-19T09:22:18.960Z,173.72
2023-06-19T09:23:18.962Z,172.95
2023-06-19T09:24:18.977Z,170.20
2023-06-19T09:25:18.919Z,171.38
2023-06-19T09:26:18.982Z,171.52
2023-06-19T09:27:18.927Z,169.67
2023-06-19T09:28:18.918Z,170.90
2023-06-19T09:29:21.262Z,170.49
2023-06-19T09:30:18.874Z,168.73
2023-06-19T09:31:18.838Z,167.86
2023-06-19T09:32:18.861Z,166.25
2023-06-19T09:33:18.944Z,164.83
2023-06-19T09:34:18.907Z,163.95
2023-06-19T09:35:18.774Z,161.74
2023-06-19T09:36:18.751Z,162.36
2023-06-19T09:37:18.705Z,161.89
2023-06-19T09:38:18.725Z,161.10
2023-06-19T09:39:18.719Z,161.05
2023-06-19T09:40:18.736Z,162.82
2023-06-19T09:41:18.664Z,171.14
2023-06-19T09:42:18.665Z,176.66
2023-06-19T09:43:18.634Z,177.51
2023-06-19T09:44:18.601Z,178.06
2023-06-19T09:45:18.597Z,181.23
2023-06-19T09:46:18.546Z,180.57
2023-06-19T09:47:18.587Z,180.54
2023-06-19T09:48:18.599Z,178.76
2023-06-19T09:49:18.515Z,186.04
2023-06-19T09:50:21.382Z,188.61
2023-06-19T09:51:18.444Z,188.74
2023-06-19T09:52:18.448Z,188.95
2023-06-19T09:53:18.531Z,188.03
2023-06-19T09:54:18.558Z,185.36
2023-06-19T09:55:18.396Z,183.24
2023-06-19T09:56:18.419Z,190.03
2023-06-19T09:57:18.345Z,192.28
2023-06-19T09:58:18.307Z,194.97
2023-06-19T09:59:18.304Z,197.35
2023-06-19T10:00:18.305Z,196.88
2023-06-19T10:01:18.537Z,197.35
2023-06-19T10:02:18.294Z,197.07
2023-06-19T10:03:18.462Z,197.77
2023-06-19T10:04:18.232Z,200.00
2023-06-19T10:05:18.248Z,197.63
2023-06-19T10:06:18.180Z,199.01
2023-06-19T10:07:18.155Z,199.27
2023-06-19T10:08:18.150Z,199.08
2023-06-19T10:09:18.113Z,199.16
2023-06-19T10:10:18.098Z,192.47
2023-06-19T10:11:18.093Z,188.42
2023-06-19T10:12:18.063Z,184.12
2023-06-19T10:13:18.092Z,184.08
2023-06-19T10:14:18.047Z,188.83
2023-06-19T10:15:18.113Z,185.01
2023-06-19T10:16:18.118Z,184.28
2023-06-19T10:17:18.023Z,181.51
2023-06-19T10:18:18.065Z,192.92
2023-06-19T10:19:17.963Z,194.74
2023-06-19T10:20:17.948Z,187.03
2023-06-19T10:21:17.923Z,186.32
2023-06-19T10:22:17.943Z,185.31
2023-06-19T10:23:20.436Z,181.78
2023-06-19T10:24:17.891Z,181.46
2023-06-19T10:25:17.851Z,183.09
2023-06-19T10:26:17.820Z,179.41
2023-06-19T10:27:17.830Z,180.40
2023-06-19T10:28:17.782Z,182.74
2023-06-19T10:29:17.762Z,177.17
2023-06-19T10:30:17.799Z,173.86
2023-06-19T10:31:17.733Z,178.01
2023-06-19T10:32:17.701Z,184.09
2023-06-19T10:33:17.705Z,187.39
2023-06-19T10:34:17.653Z,180.55
2023-06-19T10:35:17.676Z,172.76
2023-06-19T10:36:17.671Z,163.80
2023-06-19T10:37:17.610Z,164.38
2023-06-19T10:38:17.668Z,171.32
2023-06-19T10:39:17.570Z,172.87
2023-06-19T10:40:17.653Z,173.44
2023-06-19T10:41:17.569Z,169.10
2023-06-19T10:42:17.542Z,165.53
2023-06-19T10:43:17.520Z,162.57
2023-06-19T10:44:17.475Z,161.17
2023-06-19T10:45:17.501Z,163.10
2023-06-19T10:46:17.526Z,165.49
2023-06-19T10:47:17.446Z,160.56
2023-06-19T10:48:17.426Z,152.12
2023-06-19T10:49:17.386Z,153.63
2023-06-19T10:50:17.387Z,152.87
2023-06-19T10:51:17.363Z,150.95
2023-06-19T10:52:17.340Z,153.84
2023-06-19T10:53:17.323Z,156.18
2023-06-19T10:54:17.283Z,148.23
2023-06-19T10:55:17.237Z,143.17
2023-06-19T10:56:17.260Z,140.94
2023-06-19T10:57:17.202Z,137.18
2023-06-19T10:58:17.203Z,147.94
2023-06-19T10:59:17.191Z,152.22
2023-06-19T11:00:17.159Z,149.88
2023-06-19T11:01:17.136Z,144.19
2023-06-19T11:02:17.142Z,138.35
2023-06-19T11:03:17.209Z,137.00
2023-06-19T11:04:17.129Z,144.83
2023-06-19T11:05:17.131Z,144.86
2023-06-19T11:06:17.183Z,143.25
2023-06-19T11:07:17.211Z,135.76
2023-06-19T11:08:17.277Z,134.95
2023-06-19T11:09:17.281Z,133.30
2023-06-19T11:10:17.346Z,133.36
2023-06-19T11:11:17.370Z,137.37
2023-06-19T11:12:17.397Z,146.23
2023-06-19T11:13:17.461Z,149.91
2023-06-19T11:14:17.532Z,147.67
2023-06-19T11:15:17.548Z,156.42
2023-06-19T11:16:17.672Z,157.32
2023-06-19T11:17:17.799Z,154.96
2023-06-19T11:18:17.642Z,148.06
2023-06-19T11:19:17.711Z,146.35
2023-06-19T11:20:17.745Z,128.27
2023-06-19T11:21:17.804Z,110.27
2023-06-19T11:22:17.826Z,90.98
2023-06-19T11:23:17.826Z,100.60
2023-06-19T11:24:17.931Z,108.91
2023-06-19T11:25:17.883Z,99.16
2023-06-19T11:26:17.910Z,92.13
2023-06-19T11:27:17.964Z,77.85
2023-06-19T11:28:18.001Z,80.74
2023-06-19T11:29:18.048Z,79.90
2023-06-19T11:30:18.092Z,72.44
2023-06-19T11:31:18.165Z,65.49
2023-06-19T11:32:18.201Z,75.80
2023-06-19T11:33:18.157Z,84.29
2023-06-19T11:34:19.095Z,89.33
2023-06-19T11:35:18.211Z,89.13
2023-06-19T11:36:18.199Z,95.37
2023-06-19T11:37:18.225Z,99.34
2023-06-19T11:38:18.278Z,101.78
2023-06-19T11:39:18.310Z,99.07
2023-06-19T11:40:18.317Z,97.19
2023-06-19T11:41:18.358Z,94.71
2023-06-19T11:42:18.405Z,84.45
2023-06-19T11:43:18.429Z,83.11
2023-06-19T11:44:18.410Z,83.72
2023-06-19T11:45:18.455Z,85.77
2023-06-19T11:46:18.485Z,87.87
2023-06-19T11:47:18.477Z,82.44
2023-06-19T11:48:18.467Z,83.46
2023-06-19T11:49:18.516Z,81.81
2023-06-19T11:50:18.574Z,68.36
2023-06-19T11:51:18.631Z,71.47
2023-06-19T11:52:18.594Z,72.46
2023-06-19T11:53:18.932Z,75.92
2023-06-19T11:54:18.670Z,76.20
2023-06-19T11:55:18.719Z,73.27
2023-06-19T11:56:18.717Z,76.94
2023-06-19T11:57:18.739Z,76.07
2023-06-19T11:58:18.753Z,60.54
2023-06-19T11:59:18.810Z,59.00
2023-06-19T12:00:18.885Z,59.40
2023-06-19T12:01:18.853Z,55.34
2023-06-19T12:02:18.940Z,56.19
2023-06-19T12:03:19.039Z,63.14
2023-06-19T12:04:19.208Z,72.55
2023-06-19T12:05:18.982Z,83.91
2023-06-19T12:06:18.970Z,87.85
2023-06-19T12:07:19.028Z,93.72
2023-06-19T12:08:19.023Z,96.17
2023-06-19T12:09:19.057Z,99.19
2023-06-19T12:10:19.071Z,100.78
2023-06-19T12:11:19.099Z,104.46
2023-06-19T12:12:19.156Z,100.97
2023-06-19T12:13:19.199Z,96.78
2023-06-19T12:14:19.197Z,93.70
2023-06-19T12:15:19.211Z,95.28
2023-06-19T12:16:19.289Z,87.74
2023-06-19T12:17:19.279Z,85.08
2023-06-19T12:18:19.337Z,79.38
2023-06-19T12:19:21.022Z,76.23
2023-06-19T12:20:19.363Z,72.34
2023-06-19T12:21:34.342Z,55.78
2023-06-19T12:22:20.375Z,53.61
2023-06-19T12:23:19.352Z,52.20
2023-06-19T12:24:19.384Z,47.70
2023-06-19T12:25:19.868Z,55.61
2023-06-19T12:26:19.354Z,52.82
2023-06-19T12:27:19.310Z,54.14
2023-06-19T12:28:19.363Z,56.38
2023-06-19T12:29:19.346Z,57.88
2023-06-19T12:30:19.293Z,66.46
2023-06-19T12:31:19.390Z,73.37
2023-06-19T12:32:19.258Z,80.01
2023-06-19T12:33:19.220Z,84.36
2023-06-19T12:34:30.204Z,87.98
2023-06-19T12:35:20.212Z,85.61
2023-06-19T12:36:19.209Z,75.60